Time;durP1;ratioP1;P1;durP2;ratioP2;P2;SDS_P1;SDS_P2;PMS_P1;PMS_P2;Temp;Humidity;BMP_temperature;BMP_pressure;BME280_temperature;BME280_humidity;BME280_pressure;Samples;Min_cycle;Max_cycle;Signal;HPM_P1;HPM_P2
2021/05/13 00:00:23;;;;;;;6.60;2.97;;;10.90;99.70;;;;;;5039924;28;20444;-64
2021/05/13 00:02:50;;;;;;;4.70;2.73;;;10.90;99.70;;;;;;5039805;28;20448;-64
2021/05/13 00:05:17;;;;;;;4.73;2.50;;;10.80;99.70;;;;;;5039898;28;20503;-64
2021/05/13 00:07:43;;;;;;;9.57;3.20;;;10.80;99.70;;;;;;5038741;28;20473;-64
2021/05/13 00:10:13;;;;;;;4.00;2.67;;;10.80;99.70;;;;;;5039633;28;20441;-64
2021/05/13 00:12:43;;;;;;;4.40;2.60;;;10.70;99.70;;;;;;5051166;28;20455;-62
2021/05/13 00:15:12;;;;;;;7.30;2.90;;;10.70;99.70;;;;;;5058860;28;20879;-64
2021/05/13 00:17:38;;;;;;;6.03;3.37;;;10.70;99.70;;;;;;5059493;28;20464;-64
2021/05/13 00:20:08;;;;;;;4.50;2.70;;;10.60;99.70;;;;;;5058247;28;20448;-65
2021/05/13 00:22:35;;;;;;;6.27;2.73;;;10.60;99.70;;;;;;5058222;28;20455;-64
2021/05/13 00:25:01;;;;;;;4.80;2.50;;;10.60;99.70;;;;;;5056856;28;20510;-62
2021/05/13 00:27:28;;;;;;;5.17;2.67;;;10.60;99.70;;;;;;5057828;28;20464;-64
2021/05/13 00:29:54;;;;;;;5.33;2.80;;;10.60;99.70;;;;;;5040613;28;20444;-64
2021/05/13 00:32:20;;;;;;;7.30;2.60;;;10.60;99.70;;;;;;5037670;28;20449;-64
2021/05/13 00:34:46;;;;;;;4.13;3.17;;;10.60;99.70;;;;;;5037815;28;20447;-63
2021/05/13 00:37:12;;;;;;;8.47;2.93;;;10.50;99.70;;;;;;5037617;28;21192;-64
2021/05/13 00:39:39;;;;;;;6.10;3.00;;;10.60;99.70;;;;;;5037242;28;20451;-64
2021/05/13 00:42:06;;;;;;;5.17;3.23;;;10.60;99.70;;;;;;5037209;28;20455;-64
2021/05/13 00:44:34;;;;;;;5.97;2.40;;;10.60;99.70;;;;;;5036901;28;20477;-64
2021/05/13 00:47:00;;;;;;;6.20;3.00;;;10.50;99.70;;;;;;5052933;28;20525;-64
2021/05/13 00:49:26;;;;;;;4.67;2.67;;;10.60;99.70;;;;;;5056422;28;20435;-64
2021/05/13 00:51:53;;;;;;;4.67;2.93;;;10.60;99.70;;;;;;5056183;28;20452;-64
2021/05/13 00:54:19;;;;;;;4.53;2.50;;;10.50;99.70;;;;;;5056480;28;20450;-64
2021/05/13 00:56:47;;;;;;;6.50;3.10;;;10.60;99.70;;;;;;5056917;28;20524;-64
2021/05/13 00:59:14;;;;;;;5.20;2.83;;;10.50;99.70;;;;;;5057235;28;20440;-65
2021/05/13 01:01:49;;;;;;;6.60;3.40;;;10.50;99.70;;;;;;5057499;28;20444;-64
2021/05/13 01:04:16;;;;;;;5.17;2.57;;;10.40;99.70;;;;;;5017885;28;20476;-64
2021/05/13 01:06:43;;;;;;;6.50;3.10;;;10.50;99.70;;;;;;5018939;28;20477;-64
2021/05/13 01:09:10;;;;;;;7.37;3.43;;;10.50;99.70;;;;;;5018408;28;20448;-64
2021/05/13 01:11:39;;;;;;;8.40;2.80;;;10.40;99.70;;;;;;5032037;28;20472;-63
2021/05/13 01:14:15;;;;;;;4.60;2.60;;;10.40;99.70;;;;;;5038590;28;20517;-65
2021/05/13 01:16:52;;;;;;;4.70;2.80;;;10.40;99.70;;;;;;5038819;28;20470;-64
2021/05/13 01:19:18;;;;;;;4.10;2.73;;;10.30;99.70;;;;;;5040041;28;20661;-64
2021/05/13 01:21:46;;;;;;;9.30;3.20;;;10.30;99.70;;;;;;5038193;28;20478;-64
2021/05/13 01:24:12;;;;;;;9.33;3.13;;;10.30;99.70;;;;;;5038987;28;20851;-64
2021/05/13 01:26:43;;;;;;;5.17;2.90;;;10.30;99.70;;;;;;5039005;28;20465;-65
2021/05/13 01:29:09;;;;;;;8.33;3.47;;;10.20;99.70;;;;;;5053908;28;20475;-65
2021/05/13 01:31:35;;;;;;;6.10;2.90;;;10.20;99.70;;;;;;5055830;28;20942;-64
2021/05/13 01:34:01;;;;;;;6.27;3.27;;;10.20;99.70;;;;;;5056769;28;20443;-65
2021/05/13 01:36:27;;;;;;;5.27;2.83;;;10.20;99.70;;;;;;5058327;28;20467;-64
2021/05/13 01:38:57;;;;;;;6.10;3.00;;;10.20;99.70;;;;;;5057802;28;20866;-63
2021/05/13 01:41:23;;;;;;;4.40;2.50;;;10.20;99.70;;;;;;5058082;28;20465;-64
2021/05/13 01:43:49;;;;;;;6.33;2.93;;;10.20;99.70;;;;;;5057300;28;20478;-64
2021/05/13 01:46:16;;;;;;;4.43;2.90;;;10.20;99.70;;;;;;5039794;28;20484;-64
2021/05/13 01:48:42;;;;;;;4.63;2.63;;;10.30;99.70;;;;;;5037742;28;20444;-64
2021/05/13 01:51:09;;;;;;;5.50;2.83;;;10.20;99.70;;;;;;5045116;28;20459;-64
2021/05/13 01:53:35;;;;;;;5.80;2.90;;;10.10;99.70;;;;;;5057406;28;20447;-64
2021/05/13 01:56:02;;;;;;;5.17;2.63;;;10.10;99.70;;;;;;5058185;28;20464;-65
2021/05/13 01:58:28;;;;;;;4.93;2.83;;;10.10;99.70;;;;;;5057876;28;20520;-64
2021/05/13 02:00:54;;;;;;;3.90;2.70;;;10.00;99.70;;;;;;5056733;28;20505;-64
2021/05/13 02:03:20;;;;;;;6.20;2.87;;;10.10;99.70;;;;;;5055059;28;20452;-64
2021/05/13 02:05:46;;;;;;;6.57;3.27;;;10.10;99.70;;;;;;5045551;28;20522;-65
2021/05/13 02:08:13;;;;;;;4.90;2.87;;;10.10;99.70;;;;;;5036031;28;20491;-64
2021/05/13 02:10:39;;;;;;;5.50;2.90;;;10.20;99.70;;;;;;5035963;28;20441;-64
2021/05/13 02:13:06;;;;;;;7.50;3.10;;;10.10;99.70;;;;;;5036358;28;20475;-63
2021/05/13 02:15:32;;;;;;;4.03;2.43;;;10.10;99.70;;;;;;5036161;28;20447;-64
2021/05/13 02:17:59;;;;;;;5.60;2.97;;;10.10;99.70;;;;;;5036145;28;20819;-64
2021/05/13 02:20:26;;;;;;;5.00;2.60;;;10.10;99.70;;;;;;5036095;28;20522;-63
2021/05/13 02:22:54;;;;;;;6.37;2.90;;;10.10;99.70;;;;;;5036760;28;20639;-64
2021/05/13 02:25:20;;;;;;;6.13;2.53;;;10.00;99.70;;;;;;5035934;28;20557;-64
2021/05/13 02:27:46;;;;;;;7.07;3.03;;;9.90;99.70;;;;;;5036048;28;20460;-64
2021/05/13 02:30:14;;;;;;;4.77;2.70;;;9.90;99.70;;;;;;5036491;28;20445;-64
2021/05/13 02:32:41;;;;;;;4.43;2.67;;;9.80;99.70;;;;;;5035611;28;20448;-64
2021/05/13 02:35:09;;;;;;;5.00;2.50;;;9.80;99.70;;;;;;5036304;28;20437;-64
2021/05/13 02:37:35;;;;;;;8.73;2.60;;;9.90;99.70;;;;;;5035190;28;20464;-63
2021/05/13 02:40:01;;;;;;;4.03;2.57;;;9.80;99.70;;;;;;5046781;28;20505;-64
2021/05/13 02:42:27;;;;;;;6.63;2.90;;;9.80;99.70;;;;;;5055321;28;20840;-64
2021/05/13 02:44:53;;;;;;;4.93;2.77;;;9.90;99.70;;;;;;5055551;28;20986;-64
2021/05/13 02:47:20;;;;;;;5.10;3.00;;;10.00;99.70;;;;;;5056289;28;20467;-64
2021/05/13 02:49:47;;;;;;;4.83;2.87;;;10.00;99.70;;;;;;5055372;28;20439;-64
2021/05/13 02:52:13;;;;;;;7.23;3.10;;;10.00;99.70;;;;;;5056182;28;20440;-64
2021/05/13 02:54:39;;;;;;;5.43;3.10;;;10.00;99.70;;;;;;5054806;28;20440;-64
2021/05/13 02:57:05;;;;;;;5.07;2.67;;;9.90;99.70;;;;;;5042694;28;20468;-64
2021/05/13 02:59:41;;;;;;;5.30;2.73;;;9.90;99.70;;;;;;5035917;28;20944;-63
2021/05/13 03:02:08;;;;;;;4.77;2.23;;;10.10;99.70;;;;;;5036073;28;20440;-64
2021/05/13 03:04:35;;;;;;;6.67;3.90;;;10.00;99.70;;;;;;5034782;28;20908;-63
2021/05/13 03:07:01;;;;;;;6.40;3.13;;;10.00;99.70;;;;;;5036230;28;20472;-63
2021/05/13 03:09:27;;;;;;;13.80;2.87;;;10.00;99.70;;;;;;5038609;28;20449;-64
2021/05/13 03:11:53;;;;;;;6.83;2.83;;;10.00;99.70;;;;;;5038368;28;20445;-65
2021/05/13 03:14:20;;;;;;;5.57;2.10;;;10.00;99.70;;;;;;5042267;28;20800;-65
2021/05/13 03:16:46;;;;;;;5.90;3.00;;;10.10;99.70;;;;;;5041899;28;20958;-64
2021/05/13 03:19:16;;;;;;;5.57;2.77;;;10.20;99.70;;;;;;5041892;28;20466;-64
2021/05/13 03:21:45;;;;;;;5.63;2.90;;;10.10;99.70;;;;;;5041436;28;20448;-63
2021/05/13 03:24:16;;;;;;;6.30;3.00;;;10.10;99.70;;;;;;5041531;28;20820;-63
2021/05/13 03:26:55;;;;;;;4.80;2.67;;;10.10;99.70;;;;;;5041291;28;20552;-64
2021/05/13 03:29:22;;;;;;;6.73;3.27;;;10.00;99.70;;;;;;5044855;28;20455;-63
2021/05/13 03:31:48;;;;;;;4.33;2.63;;;10.00;99.70;;;;;;5061262;28;20432;-64
2021/05/13 03:34:15;;;;;;;6.07;3.10;;;9.90;99.70;;;;;;5060332;28;20470;-65
2021/05/13 03:36:41;;;;;;;8.00;2.90;;;10.00;99.70;;;;;;5059680;28;20460;-63
2021/05/13 03:39:10;;;;;;;5.40;3.00;;;10.10;99.70;;;;;;5059895;28;20440;-66
2021/05/13 03:41:37;;;;;;;5.17;2.90;;;10.10;99.70;;;;;;5060513;28;20470;-65
2021/05/13 03:44:04;;;;;;;6.07;2.53;;;10.00;99.70;;;;;;5059384;28;20443;-63
2021/05/13 03:46:31;;;;;;;4.07;2.30;;;10.00;99.70;;;;;;5056078;28;20481;-64
2021/05/13 03:48:58;;;;;;;4.60;2.60;;;9.90;99.70;;;;;;5040286;28;20510;-64
2021/05/13 03:51:24;;;;;;;4.07;2.50;;;9.90;99.70;;;;;;5038376;28;20524;-64
2021/05/13 03:53:50;;;;;;;5.53;2.70;;;10.10;99.70;;;;;;5039219;28;20468;-64
2021/05/13 03:56:17;;;;;;;14.80;3.27;;;10.10;99.70;;;;;;5038465;28;20810;-64
2021/05/13 03:58:47;;;;;;;7.23;3.30;;;10.10;99.70;;;;;;5055567;28;20459;-64
2021/05/13 04:01:17;;;;;;;5.40;3.00;;;10.00;99.70;;;;;;5060307;28;20455;-65
2021/05/13 04:03:43;;;;;;;6.43;2.93;;;10.00;99.70;;;;;;5057758;28;20455;-64
2021/05/13 04:06:09;;;;;;;6.87;2.57;;;10.10;99.70;;;;;;5057321;28;20488;-64
2021/05/13 04:08:35;;;;;;;11.70;2.80;;;10.00;99.70;;;;;;5059600;28;20817;-64
2021/05/13 04:11:02;;;;;;;8.50;3.60;;;9.90;99.70;;;;;;5059322;28;20503;-64
2021/05/13 04:13:29;;;;;;;6.27;3.37;;;9.90;99.70;;;;;;5040676;28;20440;-63
2021/05/13 04:15:55;;;;;;;6.90;3.13;;;9.90;99.70;;;;;;5073879;22;20499;-66
2021/05/13 04:18:21;;;;;;;7.07;3.67;;;9.80;99.70;;;;;;5049899;28;20529;-65
2021/05/13 04:20:47;;;;;;;9.03;3.93;;;9.80;99.70;;;;;;5051599;28;20477;-66
2021/05/13 04:23:13;;;;;;;22.53;7.70;;;9.90;99.70;;;;;;5050486;28;20452;-66
2021/05/13 04:25:40;;;;;;;8.70;4.03;;;9.90;99.70;;;;;;5050767;28;20482;-66
2021/05/13 04:28:06;;;;;;;6.63;3.17;;;9.80;99.70;;;;;;5051516;28;20462;-65
2021/05/13 04:30:33;;;;;;;5.27;3.00;;;9.80;99.70;;;;;;5049359;28;20464;-66
2021/05/13 04:32:59;;;;;;;18.07;8.03;;;9.80;99.70;;;;;;5046214;28;20812;-66
2021/05/13 04:35:26;;;;;;;13.83;5.93;;;9.80;99.70;;;;;;5045837;28;20447;-66
2021/05/13 04:37:52;;;;;;;19.47;4.83;;;9.90;99.70;;;;;;5047585;28;20475;-65
2021/05/13 04:40:18;;;;;;;12.90;4.90;;;10.10;99.70;;;;;;5047715;28;20526;-67
2021/05/13 04:42:45;;;;;;;14.67;4.93;;;10.10;99.70;;;;;;5029979;28;20456;-66
2021/05/13 04:45:11;;;;;;;9.30;4.03;;;10.00;99.70;;;;;;5029722;28;20487;-66
2021/05/13 04:48:02;;;;;;;5.83;3.63;;;10.00;99.70;;;;;;5031147;28;20492;-66
2021/05/13 04:50:28;;;;;;;7.80;4.07;;;10.00;99.70;;;;;;5030320;28;20444;-66
2021/05/13 04:52:55;;;;;;;9.33;4.30;;;10.00;99.70;;;;;;5031167;28;20444;-66
2021/05/13 04:55:21;;;;;;;7.63;4.10;;;10.00;99.70;;;;;;5030943;28;20460;-66
2021/05/13 04:57:47;;;;;;;6.90;3.60;;;10.10;99.70;;;;;;5039027;28;20468;-66
2021/05/13 05:00:14;;;;;;;6.20;3.20;;;10.30;99.70;;;;;;5049503;28;20454;-66
2021/05/13 05:02:41;;;;;;;7.47;3.30;;;10.30;99.70;;;;;;5050468;28;20455;-66
2021/05/13 05:05:09;;;;;;;6.53;3.03;;;10.40;99.70;;;;;;5050565;28;20487;-66
2021/05/13 05:07:35;;;;;;;9.47;3.40;;;10.50;99.70;;;;;;5050181;28;20471;-66
2021/05/13 05:10:01;;;;;;;9.77;3.77;;;10.50;99.70;;;;;;5050736;28;20505;-67
2021/05/13 05:12:27;;;;;;;10.20;3.27;;;10.50;99.70;;;;;;5050297;28;20971;-65
2021/05/13 05:14:53;;;;;;;6.23;3.23;;;10.50;99.70;;;;;;5048624;28;20879;-67
2021/05/13 05:17:19;;;;;;;10.13;3.80;;;10.50;99.70;;;;;;5049992;28;20552;-67
2021/05/13 05:19:46;;;;;;;7.70;3.00;;;10.40;99.70;;;;;;5050618;28;20448;-66
2021/05/13 05:22:13;;;;;;;6.57;2.90;;;10.40;99.70;;;;;;5050008;28;20517;-67
2021/05/13 05:24:39;;;;;;;5.87;2.97;;;10.50;99.70;;;;;;5049928;28;20606;-66
2021/05/13 05:27:06;;;;;;;5.57;3.47;;;10.70;99.70;;;;;;5050151;28;20517;-66
2021/05/13 05:29:33;;;;;;;5.53;2.50;;;10.80;99.70;;;;;;5050210;28;20448;-66
2021/05/13 05:31:59;;;;;;;7.53;3.10;;;11.00;99.70;;;;;;5048475;28;20448;-66
2021/05/13 05:34:25;;;;;;;4.93;3.20;;;11.10;99.70;;;;;;5049683;28;20448;-66
2021/05/13 05:36:52;;;;;;;9.10;2.60;;;11.20;99.70;;;;;;5049153;28;20529;-66
2021/05/13 05:39:19;;;;;;;4.73;2.53;;;11.10;99.70;;;;;;5050037;28;20452;-66
2021/05/13 05:41:45;;;;;;;5.30;2.37;;;11.00;99.70;;;;;;5049760;28;20448;-66
2021/05/13 05:44:12;;;;;;;6.50;2.50;;;11.10;99.70;;;;;;5049565;28;20455;-66
2021/05/13 05:46:39;;;;;;;6.27;3.40;;;11.50;99.70;;;;;;5049943;28;20485;-66
2021/05/13 05:49:05;;;;;;;6.03;2.80;;;11.50;99.70;;;;;;5048494;28;20880;-66
2021/05/13 05:51:31;;;;;;;4.10;2.43;;;11.70;99.70;;;;;;5049138;28;20443;-65
2021/05/13 05:53:58;;;;;;;6.33;3.40;;;11.90;99.70;;;;;;5049605;28;20459;-66
2021/05/13 05:56:24;;;;;;;10.63;2.87;;;11.90;99.70;;;;;;5049291;28;20456;-66
2021/05/13 05:58:50;;;;;;;6.40;3.47;;;11.80;99.70;;;;;;5049715;28;20439;-66
2021/05/13 06:01:17;;;;;;;6.00;2.90;;;11.90;99.70;;;;;;5049630;28;20951;-66
2021/05/13 06:03:43;;;;;;;5.30;2.80;;;11.90;99.70;;;;;;5049581;28;20483;-67
2021/05/13 06:06:09;;;;;;;6.37;3.00;;;12.10;99.70;;;;;;5033773;28;20987;-67
2021/05/13 06:08:35;;;;;;;6.17;3.17;;;12.30;99.70;;;;;;5029735;28;20456;-67
2021/05/13 06:11:02;;;;;;;5.20;2.93;;;12.30;99.70;;;;;;5030213;28;20449;-67
2021/05/13 06:13:29;;;;;;;5.13;3.00;;;12.50;99.70;;;;;;5035351;28;20452;-66
2021/05/13 06:15:55;;;;;;;7.17;3.07;;;12.90;99.70;;;;;;5049675;28;20466;-66
2021/05/13 06:18:21;;;;;;;5.80;3.40;;;13.40;99.70;;;;;;5049684;28;21031;-66
2021/05/13 06:20:47;;;;;;;5.70;3.10;;;14.10;99.70;;;;;;5050039;28;20463;-67
2021/05/13 06:23:13;;;;;;;4.50;2.60;;;14.70;99.70;;;;;;5047667;28;20450;-68
2021/05/13 06:25:40;;;;;;;4.97;2.53;;;15.40;99.70;;;;;;5049608;28;20491;-69
2021/05/13 06:28:07;;;;;;;7.10;2.90;;;16.40;99.70;;;;;;5049567;28;20443;-68
2021/05/13 06:30:34;;;;;;;5.60;3.20;;;16.40;99.70;;;;;;5049670;28;20454;-68
2021/05/13 06:33:00;;;;;;;5.57;3.37;;;16.60;99.70;;;;;;5049236;28;20453;-67
2021/05/13 06:35:26;;;;;;;5.30;3.20;;;16.90;99.70;;;;;;5049206;28;21003;-70
2021/05/13 06:37:52;;;;;;;4.60;3.00;;;17.10;99.70;;;;;;5049465;28;20459;-68
2021/05/13 06:40:19;;;;;;;5.83;2.90;;;17.50;99.70;;;;;;5047658;28;20505;-68
2021/05/13 06:42:46;;;;;;;3.70;2.70;;;17.60;99.70;;;;;;5049222;28;20201;-66
2021/05/13 06:45:14;;;;;;;4.60;2.97;;;18.20;99.70;;;;;;5049300;28;20224;-67
2021/05/13 06:47:41;;;;;;;4.67;2.90;;;17.80;99.70;;;;;;5051316;28;20266;-67
2021/05/13 06:50:08;;;;;;;4.80;2.70;;;18.10;99.70;;;;;;5052422;28;20197;-66
2021/05/13 06:52:37;;;;;;;4.73;3.10;;;18.30;98.80;;;;;;5053008;28;20367;-67
2021/05/13 06:55:04;;;;;;;4.13;2.72;;;18.20;99.50;;;;;;5053200;28;20583;-66
2021/05/13 06:57:30;;;;;;;3.63;2.63;;;18.70;99.10;;;;;;5051364;28;20518;-66
2021/05/13 06:59:57;;;;;;;4.22;2.47;;;19.50;95.60;;;;;;5053055;28;20228;-67
2021/05/13 07:02:25;;;;;;;5.57;2.80;;;19.50;97.10;;;;;;5052962;28;20201;-67
2021/05/13 07:04:52;;;;;;;4.17;2.60;;;19.30;95.40;;;;;;5052205;28;20258;-66
2021/05/13 07:07:18;;;;;;;4.70;2.70;;;18.80;95.00;;;;;;5052594;28;20271;-66
2021/05/13 07:09:46;;;;;;;4.10;2.60;;;18.00;98.90;;;;;;5052936;28;20660;-67
2021/05/13 07:12:12;;;;;;;5.20;2.80;;;18.40;99.00;;;;;;5052685;28;20876;-67
2021/05/13 07:14:39;;;;;;;6.90;3.10;;;18.10;99.70;;;;;;5050696;28;20492;-67
2021/05/13 07:17:05;;;;;;;4.43;2.70;;;17.90;98.70;;;;;;5052482;28;20823;-66
2021/05/13 07:19:32;;;;;;;4.37;2.80;;;18.10;99.70;;;;;;5052348;28;20448;-66
2021/05/13 07:22:00;;;;;;;4.97;2.63;;;18.50;98.10;;;;;;5053184;28;20448;-66
2021/05/13 07:24:27;;;;;;;4.27;2.53;;;18.50;98.80;;;;;;5052344;28;20499;-67
2021/05/13 07:26:53;;;;;;;4.77;2.50;;;17.80;99.70;;;;;;5036677;28;20484;-66
2021/05/13 07:29:19;;;;;;;4.07;2.40;;;17.50;99.70;;;;;;5032459;28;20880;-66
2021/05/13 07:31:45;;;;;;;4.30;2.63;;;16.90;99.70;;;;;;5032842;28;20452;-68
2021/05/13 07:34:11;;;;;;;5.63;3.00;;;16.90;99.70;;;;;;5032008;28;20506;-67
2021/05/13 07:36:38;;;;;;;4.70;2.93;;;16.50;99.70;;;;;;5032367;28;20542;-66
2021/05/13 07:39:06;;;;;;;4.03;2.60;;;16.80;99.70;;;;;;5031741;28;20440;-66
2021/05/13 07:41:33;;;;;;;4.13;2.73;;;16.20;99.70;;;;;;5033460;28;20445;-67
2021/05/13 07:43:59;;;;;;;7.60;3.13;;;16.50;99.70;;;;;;5031003;28;20472;-66
2021/05/13 07:46:33;;;;;;;4.03;2.20;;;15.90;99.70;;;;;;5030840;28;20567;-66
2021/05/13 07:49:00;;;;;;;4.97;2.40;;;16.10;99.70;;;;;;5031065;28;20432;-68
2021/05/13 07:51:26;;;;;;;4.23;2.60;;;15.70;99.70;;;;;;5029668;28;20463;-68
2021/05/13 07:53:53;;;;;;;4.90;2.30;;;15.90;99.70;;;;;;5030610;28;20441;-67
2021/05/13 07:56:19;;;;;;;4.60;2.60;;;16.20;99.70;;;;;;5031173;28;20951;-67
2021/05/13 07:58:45;;;;;;;3.53;2.33;;;16.10;99.70;;;;;;5032182;28;21055;-67
2021/05/13 08:01:11;;;;;;;4.97;2.53;;;16.00;99.70;;;;;;5031231;28;20448;-66
2021/05/13 08:03:38;;;;;;;4.70;2.30;;;15.30;99.70;;;;;;5030330;28;20441;-67
2021/05/13 08:06:04;;;;;;;6.63;2.37;;;15.80;99.70;;;;;;5030501;28;20534;-66
2021/05/13 08:08:31;;;;;;;3.03;2.20;;;16.10;99.70;;;;;;5030234;28;20449;-67
2021/05/13 08:10:58;;;;;;;4.97;2.37;;;15.80;99.70;;;;;;5030736;28;20448;-66
2021/05/13 08:13:24;;;;;;;3.53;2.10;;;15.40;99.70;;;;;;5027851;28;20467;-66
2021/05/13 08:15:51;;;;;;;4.03;2.17;;;15.30;99.70;;;;;;5029883;28;20520;-68
2021/05/13 08:18:17;;;;;;;4.10;1.80;;;15.60;99.70;;;;;;5029617;28;20975;-66
2021/05/13 08:20:43;;;;;;;4.27;2.30;;;15.30;99.70;;;;;;5029842;28;20441;-66
2021/05/13 08:23:09;;;;;;;3.20;2.10;;;15.50;99.70;;;;;;5029760;28;20443;-66
2021/05/13 08:25:35;;;;;;;3.27;2.07;;;15.70;99.70;;;;;;5029823;28;20484;-66
2021/05/13 08:28:02;;;;;;;3.03;2.00;;;15.80;99.70;;;;;;5030092;28;20820;-66
2021/05/13 08:30:29;;;;;;;3.30;1.83;;;15.90;99.70;;;;;;5030385;28;20816;-68
2021/05/13 08:32:55;;;;;;;3.70;1.87;;;15.80;99.70;;;;;;5031567;28;20471;-67
2021/05/13 08:35:21;;;;;;;2.93;1.80;;;15.90;99.70;;;;;;5030164;28;20624;-67
2021/05/13 08:37:47;;;;;;;2.27;1.47;;;16.10;99.70;;;;;;5030317;28;20468;-67
2021/05/13 08:40:14;;;;;;;2.33;1.77;;;16.10;99.70;;;;;;5029742;28;20448;-68
2021/05/13 08:42:40;;;;;;;2.30;1.70;;;16.10;99.70;;;;;;5029919;28;20456;-66
2021/05/13 08:45:09;;;;;;;3.60;1.50;;;16.00;99.70;;;;;;5030002;28;20473;-66
2021/05/13 08:47:41;;;;;;;2.10;1.50;;;15.90;99.70;;;;;;5029984;28;20471;-67
2021/05/13 08:50:08;;;;;;;1.90;1.50;;;15.60;99.70;;;;;;5030176;28;20448;-66
2021/05/13 08:52:34;;;;;;;2.17;1.50;;;16.00;98.40;;;;;;5029615;28;20452;-66
2021/05/13 08:55:01;;;;;;;2.77;1.63;;;16.00;97.70;;;;;;5030014;28;20496;-67
2021/05/13 08:57:28;;;;;;;3.27;2.10;;;16.40;99.70;;;;;;5025377;28;20474;-67
2021/05/13 08:59:55;;;;;;;4.60;2.10;;;16.20;97.70;;;;;;5028620;28;20480;-67
2021/05/13 09:02:23;;;;;;;3.80;1.80;;;16.40;97.50;;;;;;5024102;28;20444;-69
2021/05/13 09:04:52;;;;;;;3.57;1.63;;;16.50;97.10;;;;;;5028975;28;20452;-66
2021/05/13 09:07:22;;;;;;;2.17;1.70;;;16.40;96.90;;;;;;5031702;28;20465;-66
2021/05/13 09:10:16;;;;;;;1.50;1.30;;;16.30;99.70;;;;;;5029472;28;20544;-67
2021/05/13 09:12:46;;;;;;;2.40;1.60;;;16.40;91.60;;;;;;4993908;28;20452;-66
2021/05/13 09:15:16;;;;;;;4.30;2.20;;;16.10;93.10;;;;;;5027974;28;20436;-66
2021/05/13 09:17:45;;;;;;;2.60;1.37;;;16.00;92.70;;;;;;5028565;28;20496;-70
2021/05/13 09:20:24;;;;;;;2.23;1.50;;;15.90;90.20;;;;;;5023922;28;20465;-67
2021/05/13 09:22:50;;;;;;;3.50;1.80;;;16.00;93.60;;;;;;5027050;28;20436;-71
2021/05/13 09:25:17;;;;;;;2.07;1.40;;;16.10;94.60;;;;;;5028734;28;20572;-67
2021/05/13 09:27:44;;;;;;;1.60;1.30;;;15.90;99.50;;;;;;5028599;28;20465;-67
2021/05/13 09:30:15;;;;;;;2.30;1.50;;;16.00;99.00;;;;;;5029188;28;20449;-67
2021/05/13 09:32:45;;;;;;;2.10;1.43;;;16.10;97.50;;;;;;5028031;28;20449;-67
2021/05/13 09:35:14;;;;;;;1.60;1.30;;;16.20;97.40;;;;;;5028627;28;20491;-68
2021/05/13 09:37:43;;;;;;;2.47;1.30;;;16.60;96.50;;;;;;5027383;28;20472;-67
2021/05/13 09:40:11;;;;;;;1.70;1.33;;;16.70;96.50;;;;;;5029660;28;20455;-67
2021/05/13 09:42:38;;;;;;;1.83;1.37;;;16.70;97.60;;;;;;5026889;28;20445;-68
2021/05/13 09:45:07;;;;;;;2.80;1.60;;;16.80;95.70;;;;;;5028639;28;20995;-66
2021/05/13 09:47:34;;;;;;;2.17;1.50;;;16.90;97.30;;;;;;5027742;28;20507;-68
2021/05/13 09:50:06;;;;;;;2.60;1.70;;;16.90;98.30;;;;;;5019748;28;20477;-68
2021/05/13 09:52:40;;;;;;;2.47;1.73;;;16.80;97.20;;;;;;5026944;28;20948;-66
2021/05/13 09:55:15;;;;;;;3.23;1.60;;;17.10;96.90;;;;;;5027582;28;20855;-67
2021/05/13 09:57:47;;;;;;;2.67;1.80;;;18.20;92.50;;;;;;5026245;28;20872;-68
2021/05/13 10:00:31;;;;;;;2.23;1.63;;;18.80;89.60;;;;;;5028734;28;20607;-67
2021/05/13 10:02:58;;;;;;;2.73;1.90;;;18.40;89.80;;;;;;5028133;28;20527;-66
2021/05/13 10:05:26;;;;;;;2.50;1.77;;;18.10;90.50;;;;;;5017293;28;20480;-66
2021/05/13 10:07:52;;;;;;;2.20;1.60;;;17.60;91.00;;;;;;5025561;28;20480;-67
2021/05/13 10:10:22;;;;;;;2.70;1.57;;;17.60;91.10;;;;;;5030112;28;20452;-67
2021/05/13 10:12:50;;;;;;;2.70;1.70;;;17.40;94.60;;;;;;5028122;28;20471;-67
2021/05/13 10:15:17;;;;;;;2.23;1.60;;;17.10;95.70;;;;;;5030602;28;20449;-66
2021/05/13 10:17:45;;;;;;;2.80;1.70;;;17.40;96.80;;;;;;5028958;28;20469;-67
2021/05/13 10:20:15;;;;;;;2.70;1.50;;;16.90;96.10;;;;;;5026613;28;20544;-67
2021/05/13 10:22:44;;;;;;;2.43;1.63;;;16.90;96.50;;;;;;5031064;28;20444;-66
2021/05/13 10:25:25;;;;;;;3.47;2.10;;;16.90;97.30;;;;;;5033229;28;21075;-67
2021/05/13 10:27:53;;;;;;;2.17;1.70;;;16.90;97.80;;;;;;5032560;28;20467;-67
2021/05/13 10:30:25;;;;;;;2.83;1.70;;;16.90;96.30;;;;;;5033187;28;20522;-67
2021/05/13 10:33:15;;;;;;;2.43;1.60;;;16.90;97.30;;;;;;5030662;28;20884;-66
2021/05/13 10:36:00;;;;;;;3.97;2.10;;;16.70;97.50;;;;;;5031092;28;20437;-66
2021/05/13 10:38:40;;;;;;;2.80;1.93;;;16.40;95.20;;;;;;5032843;28;20448;-67
2021/05/13 10:41:32;;;;;;;3.10;1.57;;;16.40;96.40;;;;;;5012515;28;20448;-67
2021/05/13 10:44:19;;;;;;;2.60;1.67;;;16.30;99.20;;;;;;5070130;22;20500;-66
2021/05/13 10:46:53;;;;;;;3.30;1.93;;;16.40;99.70;;;;;;5031919;28;20480;-65
2021/05/13 10:49:20;;;;;;;3.47;2.10;;;16.50;98.80;;;;;;5025517;28;20521;-66
2021/05/13 10:51:49;;;;;;;2.63;1.90;;;16.50;99.70;;;;;;5020828;28;20437;-65
2021/05/13 10:54:47;;;;;;;2.30;1.70;;;16.40;99.70;;;;;;5021399;28;20460;-65
2021/05/13 10:57:17;;;;;;;2.60;1.90;;;16.30;98.70;;;;;;5023646;28;20511;-66
2021/05/13 11:00:17;;;;;;;3.37;1.70;;;16.30;98.70;;;;;;5021403;28;20433;-66
2021/05/13 11:02:45;;;;;;;3.20;1.70;;;16.40;99.70;;;;;;5021314;28;20441;-66
2021/05/13 11:05:38;;;;;;;2.63;1.70;;;16.30;98.50;;;;;;5029222;28;20464;-67
2021/05/13 11:08:28;;;;;;;3.47;1.90;;;16.50;96.70;;;;;;5020548;28;20719;-66
2021/05/13 11:11:01;;;;;;;2.27;1.60;;;16.30;98.60;;;;;;5022010;28;20445;-66
2021/05/13 11:13:47;;;;;;;2.30;1.50;;;16.20;97.80;;;;;;5020315;28;20468;-67
2021/05/13 11:16:40;;;;;;;3.00;1.80;;;16.30;99.70;;;;;;5022607;28;20862;-67
2021/05/13 11:19:25;;;;;;;2.27;1.50;;;16.30;99.10;;;;;;5021078;28;21003;-66
2021/05/13 11:22:06;;;;;;;1.93;1.50;;;16.30;95.70;;;;;;5016810;28;20482;-65
2021/05/13 11:24:37;;;;;;;3.10;1.60;;;16.30;96.60;;;;;;5017706;28;20509;-66
2021/05/13 11:27:07;;;;;;;1.80;1.40;;;16.30;98.50;;;;;;5015476;28;20558;-66
2021/05/13 11:29:51;;;;;;;2.27;1.40;;;16.30;99.70;;;;;;5021018;28;20462;-66
2021/05/13 11:32:21;;;;;;;1.83;1.27;;;16.30;99.70;;;;;;5022332;28;20536;-67
2021/05/13 11:34:48;;;;;;;2.27;1.20;;;16.30;99.70;;;;;;5019951;28;20473;-67
2021/05/13 11:37:37;;;;;;;1.90;1.40;;;16.30;99.70;;;;;;5021336;28;20443;-67
2021/05/13 11:40:25;;;;;;;5.47;1.37;;;16.40;99.70;;;;;;5023423;28;20468;-67
2021/05/13 11:43:12;;;;;;;2.50;1.60;;;16.30;99.20;;;;;;5021505;28;20441;-66
2021/05/13 11:45:39;;;;;;;2.20;1.60;;;16.30;99.70;;;;;;5022826;28;20496;-67
2021/05/13 11:48:22;;;;;;;2.90;1.50;;;16.30;99.70;;;;;;5021949;28;20687;-67
2021/05/13 11:50:48;;;;;;;2.37;1.70;;;16.40;98.60;;;;;;5021279;28;20449;-67
2021/05/13 11:53:15;;;;;;;3.20;1.90;;;16.50;98.20;;;;;;5018461;28;20494;-67
2021/05/13 11:55:42;;;;;;;2.20;1.40;;;16.60;96.30;;;;;;5007413;28;20460;-66
2021/05/13 11:58:10;;;;;;;1.63;1.40;;;16.60;95.80;;;;;;5020986;28;20957;-66
2021/05/13 12:00:36;;;;;;;1.83;1.33;;;17.00;99.00;;;;;;5030608;28;20910;-67
2021/05/13 12:03:13;;;;;;;2.00;1.40;;;17.20;97.40;;;;;;5031206;28;20449;-67
2021/05/13 12:05:50;;;;;;;2.50;1.50;;;17.10;98.20;;;;;;5030885;28;20480;-67
2021/05/13 12:08:18;;;;;;;1.87;1.30;;;17.10;95.70;;;;;;5032028;28;20440;-67
2021/05/13 12:10:44;;;;;;;1.80;1.40;;;16.90;94.30;;;;;;5032099;28;20449;-67
2021/05/13 12:13:12;;;;;;;1.47;1.20;;;17.10;94.70;;;;;;5016219;28;20457;-66
2021/05/13 12:15:38;;;;;;;2.07;1.20;;;17.00;94.20;;;;;;5012092;28;20946;-67
2021/05/13 12:18:05;;;;;;;1.87;1.40;;;17.00;93.30;;;;;;5012199;28;20469;-67
2021/05/13 12:20:32;;;;;;;2.00;1.37;;;17.20;94.70;;;;;;5012102;28;20563;-66
2021/05/13 12:22:59;;;;;;;2.10;1.40;;;16.80;93.00;;;;;;5011474;28;20860;-66
2021/05/13 12:25:26;;;;;;;1.60;1.10;;;16.90;93.50;;;;;;5011709;28;20485;-67
2021/05/13 12:27:53;;;;;;;1.77;1.20;;;16.60;93.10;;;;;;5025375;28;20461;-66
2021/05/13 12:30:21;;;;;;;1.50;1.10;;;16.30;95.20;;;;;;5031921;28;20440;-66
2021/05/13 12:32:48;;;;;;;2.60;1.40;;;16.30;96.70;;;;;;5031326;28;20451;-67
2021/05/13 12:35:29;;;;;;;1.80;1.27;;;16.40;97.00;;;;;;5031474;28;20808;-67
2021/05/13 12:38:12;;;;;;;2.37;1.23;;;16.60;99.40;;;;;;5031510;28;20537;-67
2021/05/13 12:40:39;;;;;;;2.03;1.30;;;16.70;99.70;;;;;;5022975;28;20447;-67
2021/05/13 12:43:09;;;;;;;1.73;1.20;;;16.60;98.80;;;;;;5018526;28;20460;-66
2021/05/13 12:45:43;;;;;;;2.70;1.33;;;16.60;97.50;;;;;;5020104;28;20488;-67
2021/05/13 12:48:11;;;;;;;1.83;1.23;;;16.50;98.60;;;;;;5021499;28;20448;-67
2021/05/13 12:50:38;;;;;;;1.50;1.30;;;16.50;98.00;;;;;;5019800;28;20453;-67
2021/05/13 12:53:11;;;;;;;1.40;1.10;;;16.50;95.40;;;;;;5020593;28;20434;-66
2021/05/13 12:55:38;;;;;;;3.10;1.40;;;16.50;96.00;;;;;;5018776;28;20445;-67